createdAt,value
2023-04-02T00:00:53.817Z,0.00
2023-04-02T00:01:54.740Z,0.00
2023-04-02T00:02:55.664Z,0.00
2023-04-02T00:03:56.580Z,0.00
2023-04-02T00:04:57.446Z,0.00
2023-04-02T00:05:58.336Z,0.00
2023-04-02T00:06:59.217Z,0.00
2023-04-02T00:08:00.145Z,0.00
2023-04-02T00:09:00.979Z,0.00
2023-04-02T00:10:01.865Z,0.00
2023-04-02T00:11:02.757Z,0.00
2023-04-02T00:12:03.636Z,0.00
2023-04-02T00:13:04.520Z,0.00
2023-04-02T00:14:05.429Z,0.00
2023-04-02T00:15:06.300Z,0.00
2023-04-02T00:16:07.236Z,0.00
2023-04-02T00:17:08.102Z,0.00
2023-04-02T00:18:09.014Z,0.00
2023-04-02T00:19:09.860Z,0.00
2023-04-02T00:20:10.763Z,0.00
2023-04-02T00:21:11.631Z,0.00
2023-04-02T00:22:12.516Z,0.00
2023-04-02T00:23:13.398Z,0.00
2023-04-02T00:24:14.277Z,0.00
2023-04-02T00:25:15.158Z,0.00
2023-04-02T00:26:16.054Z,0.00
2023-04-02T00:27:16.946Z,0.00
2023-04-02T00:28:17.818Z,0.00
2023-04-02T00:29:18.696Z,0.00
2023-04-02T00:30:19.602Z,0.00
2023-04-02T00:31:20.471Z,0.00
2023-04-02T00:32:21.447Z,0.00
2023-04-02T00:33:22.316Z,0.00
2023-04-02T00:34:23.198Z,0.00
2023-04-02T00:35:24.098Z,0.00
2023-04-02T00:36:24.971Z,0.00
2023-04-02T00:37:25.855Z,0.00
2023-04-02T00:38:26.746Z,0.00
2023-04-02T00:39:27.632Z,0.00
2023-04-02T00:40:28.528Z,0.00
2023-04-02T00:41:29.406Z,0.00
2023-04-02T00:42:30.282Z,0.00
2023-04-02T00:43:31.160Z,0.00
2023-04-02T00:44:32.043Z,0.00
2023-04-02T00:45:33.314Z,0.00
2023-04-02T00:46:33.844Z,0.00
2023-04-02T00:47:34.763Z,0.00
2023-04-02T00:48:35.620Z,0.00
2023-04-02T00:49:36.487Z,0.00
2023-04-02T00:50:37.386Z,0.00
2023-04-02T00:51:38.268Z,0.00
2023-04-02T00:52:39.142Z,0.00
2023-04-02T00:53:40.048Z,0.00
2023-04-02T00:54:40.916Z,0.00
2023-04-02T00:55:41.802Z,0.00
2023-04-02T00:56:42.704Z,0.00
2023-04-02T00:57:43.565Z,0.00
2023-04-02T00:58:44.453Z,0.00
2023-04-02T00:59:45.367Z,0.00
2023-04-02T01:00:46.243Z,0.00
2023-04-02T01:01:47.174Z,0.00
2023-04-02T01:02:47.763Z,0.00
2023-04-02T01:03:48.307Z,0.00
2023-04-02T01:04:49.208Z,0.00
2023-04-02T01:05:50.104Z,0.00
2023-04-02T01:06:50.976Z,0.00
2023-04-02T01:07:51.872Z,0.00
2023-04-02T01:08:52.745Z,0.00
2023-04-02T01:09:53.619Z,0.00
2023-04-02T01:10:54.511Z,0.00
2023-04-02T01:11:55.394Z,0.00
2023-04-02T01:12:56.286Z,0.00
2023-04-02T01:13:57.158Z,0.00
2023-04-02T01:14:58.039Z,0.00
2023-04-02T01:15:58.978Z,0.00
2023-04-02T01:16:59.813Z,0.00
2023-04-02T01:18:00.707Z,0.00
2023-04-02T01:19:01.575Z,0.00
2023-04-02T01:20:02.503Z,0.00
2023-04-02T01:21:03.374Z,0.00
2023-04-02T01:22:04.235Z,0.00
2023-04-02T01:23:05.125Z,0.00
2023-04-02T01:24:06.010Z,0.00
2023-04-02T01:25:06.905Z,0.00
2023-04-02T01:26:07.803Z,0.00
2023-04-02T01:27:08.684Z,0.00
2023-04-02T01:28:09.588Z,0.00
2023-04-02T01:29:10.469Z,0.00
2023-04-02T01:30:11.333Z,0.00
2023-04-02T01:31:12.258Z,0.00
2023-04-02T01:32:13.111Z,0.00
2023-04-02T01:33:13.987Z,0.00
2023-04-02T01:34:14.909Z,0.00
2023-04-02T01:35:15.748Z,0.00
2023-04-02T01:36:16.677Z,0.00
2023-04-02T01:37:17.523Z,0.00
2023-04-02T01:38:18.410Z,0.00
2023-04-02T01:39:19.284Z,0.00
2023-04-02T01:40:20.191Z,0.00
2023-04-02T01:41:21.060Z,0.00
2023-04-02T01:42:21.938Z,0.00
2023-04-02T01:43:22.821Z,0.00
2023-04-02T01:44:23.702Z,0.00
2023-04-02T01:45:24.589Z,0.00
2023-04-02T01:46:25.571Z,0.00
2023-04-02T01:47:25.966Z,0.00
2023-04-02T01:48:26.840Z,0.00
2023-04-02T01:49:27.720Z,0.00
2023-04-02T01:50:28.605Z,0.00
2023-04-02T01:51:29.498Z,0.00
2023-04-02T01:52:30.382Z,0.00
2023-04-02T01:53:31.254Z,0.00
2023-04-02T01:54:32.148Z,0.00
2023-04-02T01:55:33.507Z,0.00
2023-04-02T01:56:33.545Z,0.00
2023-04-02T01:57:34.510Z,0.00
2023-04-02T01:58:35.373Z,0.00
2023-04-02T01:59:36.249Z,0.00
2023-04-02T02:00:37.180Z,0.00
2023-04-02T02:01:38.056Z,0.00
2023-04-02T02:02:39.049Z,0.00
2023-04-02T02:03:39.435Z,0.00
2023-04-02T02:04:40.313Z,0.00
2023-04-02T02:05:41.203Z,0.00
2023-04-02T02:06:42.091Z,0.00
2023-04-02T02:07:42.973Z,0.00
2023-04-02T02:08:43.851Z,0.00
2023-04-02T02:09:44.737Z,0.00
2023-04-02T02:10:45.614Z,0.00
2023-04-02T02:11:46.508Z,0.00
2023-04-02T02:12:47.410Z,0.00
2023-04-02T02:13:48.271Z,0.00
2023-04-02T02:14:49.159Z,0.00
2023-04-02T02:15:50.036Z,0.00
2023-04-02T02:16:50.952Z,0.00
2023-04-02T02:17:51.827Z,0.00
2023-04-02T02:18:52.696Z,0.00
2023-04-02T02:19:53.575Z,0.00
2023-04-02T02:20:54.457Z,0.00
2023-04-02T02:21:55.347Z,0.00
2023-04-02T02:22:56.231Z,0.00
2023-04-02T02:23:57.111Z,0.00
2023-04-02T02:24:58.000Z,0.00
2023-04-02T02:25:58.887Z,0.00
2023-04-02T02:26:59.769Z,0.00
2023-04-02T02:28:00.657Z,0.00
2023-04-02T02:29:01.544Z,0.00
2023-04-02T02:30:02.413Z,0.00
2023-04-02T02:31:03.297Z,0.00
2023-04-02T02:32:04.255Z,0.00
2023-04-02T02:33:05.169Z,0.00
2023-04-02T02:34:06.005Z,0.00
2023-04-02T02:35:06.885Z,0.00
2023-04-02T02:36:07.800Z,0.00
2023-04-02T02:37:08.663Z,0.00
2023-04-02T02:38:09.575Z,0.00
2023-04-02T02:39:10.427Z,0.00
2023-04-02T02:40:11.302Z,0.00
2023-04-02T02:41:12.189Z,0.00
2023-04-02T02:42:13.076Z,0.00
2023-04-02T02:43:13.960Z,0.00
2023-04-02T02:44:14.838Z,0.00
2023-04-02T02:45:15.722Z,0.00
2023-04-02T02:46:16.649Z,0.00
2023-04-02T02:47:17.538Z,0.00
2023-04-02T02:48:18.400Z,0.00
2023-04-02T02:49:19.280Z,0.00
2023-04-02T02:50:20.170Z,0.00
2023-04-02T02:51:21.049Z,0.00
2023-04-02T02:52:21.941Z,0.00
2023-04-02T02:53:22.840Z,0.00
2023-04-02T02:54:23.704Z,0.00
2023-04-02T02:55:24.584Z,0.00
2023-04-02T02:56:25.460Z,0.00
2023-04-02T02:57:26.441Z,0.00
2023-04-02T02:58:27.382Z,0.00
2023-04-02T02:59:28.257Z,0.00
2023-04-02T03:00:29.139Z,0.00
2023-04-02T03:01:30.057Z,0.00
2023-04-02T03:02:31.028Z,0.00
2023-04-02T03:03:31.570Z,0.00
2023-04-02T03:04:32.077Z,0.00
2023-04-02T03:05:33.200Z,0.00
2023-04-02T03:06:33.905Z,0.00
2023-04-02T03:07:34.778Z,0.00
2023-04-02T03:08:35.659Z,0.00
2023-04-02T03:09:36.540Z,0.00
2023-04-02T03:10:37.423Z,0.00
2023-04-02T03:11:38.322Z,0.00
2023-04-02T03:12:39.201Z,0.00
2023-04-02T03:13:40.085Z,0.00
2023-04-02T03:14:40.968Z,0.00
2023-04-02T03:15:41.869Z,0.00
2023-04-02T03:16:42.724Z,0.00
2023-04-02T03:17:43.697Z,0.00
2023-04-02T03:18:44.540Z,0.00
2023-04-02T03:19:45.420Z,0.00
2023-04-02T03:20:46.300Z,0.00
2023-04-02T03:21:47.182Z,0.00
2023-04-02T03:22:48.077Z,0.00
2023-04-02T03:23:48.955Z,0.00
2023-04-02T03:24:49.855Z,0.00
2023-04-02T03:25:50.723Z,0.00
2023-04-02T03:26:51.607Z,0.00
2023-04-02T03:27:52.507Z,0.00
2023-04-02T03:28:53.394Z,0.00
2023-04-02T03:29:54.261Z,0.00
2023-04-02T03:30:55.156Z,0.00
2023-04-02T03:31:56.041Z,0.00
2023-04-02T03:32:56.994Z,0.00
2023-04-02T03:33:57.866Z,0.00
2023-04-02T03:34:58.746Z,0.00
2023-04-02T03:35:59.643Z,0.00
2023-04-02T03:37:00.509Z,0.00
2023-04-02T03:38:01.444Z,0.00
2023-04-02T03:39:02.294Z,0.00
2023-04-02T03:40:03.180Z,0.00
2023-04-02T03:41:04.060Z,0.00
2023-04-02T03:42:04.945Z,0.00
2023-04-02T03:43:05.984Z,0.00
2023-04-02T03:44:06.309Z,0.00
2023-04-02T03:45:07.193Z,0.00
2023-04-02T03:46:08.162Z,0.00
2023-04-02T03:47:08.982Z,0.00
2023-04-02T03:48:09.916Z,0.00
2023-04-02T03:49:10.775Z,0.00
2023-04-02T03:50:11.666Z,0.00
2023-04-02T03:51:12.538Z,0.00
2023-04-02T03:52:13.432Z,0.00
2023-04-02T03:53:14.316Z,0.00
2023-04-02T03:54:15.189Z,0.00
2023-04-02T03:55:16.158Z,0.00
2023-04-02T03:56:17.008Z,0.00
2023-04-02T03:57:17.901Z,0.00
2023-04-02T03:58:18.861Z,0.00
2023-04-02T03:59:19.721Z,0.00
2023-04-02T04:00:20.623Z,0.00
2023-04-02T04:01:21.483Z,0.00
2023-04-02T04:02:22.488Z,0.00
2023-04-02T04:03:22.931Z,0.00
2023-04-02T04:04:23.822Z,0.00
2023-04-02T04:05:24.669Z,0.00
2023-04-02T04:06:25.550Z,0.00
2023-04-02T04:07:26.435Z,0.00
2023-04-02T04:08:27.333Z,0.00
2023-04-02T04:09:28.208Z,0.00
2023-04-02T04:10:29.095Z,0.00
2023-04-02T04:11:30.014Z,0.00
2023-04-02T04:12:30.871Z,0.00
2023-04-02T04:13:31.770Z,0.00
2023-04-02T04:14:32.651Z,0.00
2023-04-02T04:15:33.886Z,0.00
2023-04-02T04:16:34.464Z,0.00
2023-04-02T04:17:35.373Z,0.00
2023-04-02T04:18:36.261Z,0.00
2023-04-02T04:19:37.114Z,0.00
2023-04-02T04:20:37.994Z,0.00
2023-04-02T04:21:38.883Z,0.00
2023-04-02T04:22:39.758Z,0.00
2023-04-02T04:23:40.653Z,0.00
2023-04-02T04:24:41.532Z,0.00
2023-04-02T04:25:42.417Z,0.00
2023-04-02T04:26:43.297Z,0.00
2023-04-02T04:27:44.179Z,0.00
2023-04-02T04:28:45.091Z,0.00
2023-04-02T04:29:45.975Z,0.00
2023-04-02T04:30:46.854Z,0.00
2023-04-02T04:31:47.750Z,0.00
2023-04-02T04:32:48.569Z,0.00
2023-04-02T04:33:49.496Z,0.00
2023-04-02T04:34:50.356Z,0.00
2023-04-02T04:35:51.193Z,0.00
2023-04-02T04:36:52.021Z,0.00
2023-04-02T04:37:52.897Z,0.00
2023-04-02T04:38:53.798Z,0.00
2023-04-02T04:39:54.646Z,0.00
2023-04-02T04:40:55.469Z,0.00
2023-04-02T04:41:56.311Z,0.00
2023-04-02T04:42:57.139Z,0.00
2023-04-02T04:43:58.048Z,0.00
2023-04-02T04:44:58.884Z,0.00
2023-04-02T04:45:59.740Z,0.00
2023-04-02T04:47:00.566Z,0.00
2023-04-02T04:48:01.404Z,0.00
2023-04-02T04:49:02.252Z,0.00
2023-04-02T04:50:03.059Z,0.00
2023-04-02T04:51:03.890Z,0.00
2023-04-02T04:52:04.749Z,0.00
2023-04-02T04:53:05.571Z,0.00
2023-04-02T04:54:06.424Z,0.00
2023-04-02T04:55:07.257Z,0.00
2023-04-02T04:56:18.663Z,0.00
2023-04-02T04:57:09.824Z,0.00
2023-04-02T04:58:09.647Z,0.00
2023-04-02T04:59:10.477Z,0.00
2023-04-02T05:00:11.304Z,0.00
2023-04-02T05:01:12.228Z,0.00
2023-04-02T05:02:13.014Z,0.00
2023-04-02T05:03:13.843Z,0.00
2023-04-02T05:04:14.755Z,0.00
2023-04-02T05:05:15.561Z,0.00
2023-04-02T05:06:16.383Z,0.00
2023-04-02T05:07:17.232Z,0.00
2023-04-02T05:08:18.035Z,0.00
2023-04-02T05:09:18.875Z,0.00
2023-04-02T05:10:19.709Z,0.00
2023-04-02T05:11:20.531Z,0.00
2023-04-02T05:12:21.368Z,0.00
2023-04-02T05:13:22.188Z,0.00
2023-04-02T05:14:23.027Z,0.00
2023-04-02T05:15:23.861Z,0.00
2023-04-02T05:16:24.737Z,0.00
2023-04-02T05:17:25.558Z,0.00
2023-04-02T05:18:26.358Z,0.00
2023-04-02T05:19:27.204Z,0.00
2023-04-02T05:20:28.013Z,0.00
2023-04-02T05:21:28.843Z,0.00
2023-04-02T05:22:29.679Z,0.00
2023-04-02T05:23:30.498Z,0.00
2023-04-02T05:24:31.340Z,0.00
2023-04-02T05:25:32.171Z,0.00
2023-04-02T05:26:33.005Z,0.00
2023-04-02T05:27:33.824Z,0.00
2023-04-02T05:28:34.657Z,0.00
2023-04-02T05:29:35.504Z,5.62
2023-04-02T05:30:36.330Z,5.62
2023-04-02T05:31:37.190Z,5.62
2023-04-02T05:32:38.018Z,5.62
2023-04-02T05:33:38.815Z,0.00
2023-04-02T05:34:39.680Z,0.00
2023-04-02T05:35:40.507Z,0.00
2023-04-02T05:36:41.311Z,0.00
2023-04-02T05:37:42.137Z,0.00
2023-04-02T05:38:42.969Z,0.00
2023-04-02T05:39:43.815Z,0.00
2023-04-02T05:40:44.643Z,0.00
2023-04-02T05:41:45.468Z,0.00
2023-04-02T05:42:46.293Z,0.00
2023-04-02T05:43:47.115Z,5.62
2023-04-02T05:44:47.955Z,5.62
2023-04-02T05:45:48.788Z,5.62
2023-04-02T05:46:49.728Z,5.62
2023-04-02T05:47:50.563Z,5.62
2023-04-02T05:48:51.397Z,5.62
2023-04-02T05:49:52.272Z,5.62
2023-04-02T05:50:53.073Z,5.62
2023-04-02T05:51:54.666Z,5.62
2023-04-02T05:52:54.708Z,5.62
2023-04-02T05:53:55.537Z,5.62
2023-04-02T05:54:56.362Z,5.62
2023-04-02T05:55:57.211Z,5.62
2023-04-02T05:56:58.036Z,5.62
2023-04-02T05:58:17.631Z,5.62
2023-04-02T05:59:00.610Z,5.62
2023-04-02T06:00:00.467Z,11.25
2023-04-02T06:01:01.297Z,11.25
2023-04-02T06:02:02.193Z,11.25
2023-04-02T06:03:03.053Z,11.25
2023-04-02T06:04:03.965Z,11.25
2023-04-02T06:05:04.833Z,11.25
2023-04-02T06:06:05.592Z,11.25
2023-04-02T06:07:06.425Z,11.25
2023-04-02T06:08:07.245Z,16.88
2023-04-02T06:09:08.070Z,16.88
2023-04-02T06:10:08.910Z,16.88
2023-04-02T06:11:09.747Z,16.88
2023-04-02T06:12:10.584Z,16.88
2023-04-02T06:13:11.396Z,16.88
2023-04-02T06:14:12.222Z,22.50
2023-04-02T06:15:13.068Z,22.50
2023-04-02T06:16:13.898Z,28.12
2023-04-02T06:17:14.725Z,28.12
2023-04-02T06:18:15.589Z,33.75
2023-04-02T06:19:16.418Z,33.75
2023-04-02T06:20:17.292Z,39.38
2023-04-02T06:21:18.087Z,45.00
2023-04-02T06:22:18.932Z,56.25
2023-04-02T06:23:19.743Z,78.75
2023-04-02T06:24:20.570Z,67.50
2023-04-02T06:25:21.429Z,56.25
2023-04-02T06:26:22.244Z,90.00
2023-04-02T06:27:23.067Z,95.62
2023-04-02T06:28:23.898Z,129.38
2023-04-02T06:29:24.725Z,151.88
2023-04-02T06:30:25.563Z,185.62
2023-04-02T06:31:26.446Z,202.50
2023-04-02T06:32:27.295Z,208.12
2023-04-02T06:33:28.110Z,191.25
2023-04-02T06:34:28.900Z,196.88
2023-04-02T06:35:29.759Z,230.62
2023-04-02T06:36:30.566Z,241.88
2023-04-02T06:37:31.391Z,219.38
2023-04-02T06:38:32.219Z,185.62
2023-04-02T06:39:33.032Z,157.50
2023-04-02T06:40:33.871Z,163.12
2023-04-02T06:41:34.701Z,163.12
2023-04-02T06:42:35.520Z,247.50
2023-04-02T06:43:36.507Z,264.38
2023-04-02T06:44:36.851Z,253.12
2023-04-02T06:45:37.828Z,270.00
2023-04-02T06:46:38.653Z,275.62
2023-04-02T06:47:39.509Z,286.88
2023-04-02T06:48:40.312Z,292.50
2023-04-02T06:49:41.139Z,292.50
2023-04-02T06:50:41.987Z,292.50
2023-04-02T06:51:42.795Z,286.88
2023-04-02T06:52:43.626Z,292.50
2023-04-02T06:53:44.452Z,292.50
2023-04-02T06:54:45.347Z,303.75
2023-04-02T06:55:46.180Z,309.38
2023-04-02T06:56:47.083Z,320.62
2023-04-02T06:57:47.899Z,337.50
2023-04-02T06:58:48.713Z,360.00
2023-04-02T06:59:49.549Z,376.88
2023-04-02T07:00:50.387Z,393.75
2023-04-02T07:01:51.264Z,416.25
2023-04-02T07:02:52.138Z,427.50
2023-04-02T07:03:52.963Z,438.75
2023-04-02T07:04:53.810Z,444.38
2023-04-02T07:05:54.681Z,455.62
2023-04-02T07:06:55.500Z,455.62
2023-04-02T07:07:56.310Z,455.62
2023-04-02T07:08:57.132Z,455.62
2023-04-02T07:09:57.993Z,455.62
2023-04-02T07:10:58.836Z,450.00
2023-04-02T07:11:59.644Z,444.38
2023-04-02T07:13:00.494Z,444.38
2023-04-02T07:14:01.310Z,438.75
2023-04-02T07:15:02.137Z,433.12
2023-04-02T07:16:02.996Z,427.50
2023-04-02T07:17:03.885Z,421.88
2023-04-02T07:18:04.791Z,421.88
2023-04-02T07:19:05.273Z,416.25
2023-04-02T07:20:06.096Z,410.62
2023-04-02T07:21:06.947Z,410.62
2023-04-02T07:22:07.753Z,393.75
2023-04-02T07:23:08.581Z,331.88
2023-04-02T07:24:09.405Z,365.62
2023-04-02T07:25:10.256Z,275.62
2023-04-02T07:26:11.079Z,247.50
2023-04-02T07:27:11.939Z,292.50
2023-04-02T07:28:12.780Z,253.12
2023-04-02T07:29:13.597Z,174.38
2023-04-02T07:30:14.421Z,191.25
2023-04-02T07:31:15.286Z,258.75
2023-04-02T07:32:16.108Z,281.25
2023-04-02T07:33:16.918Z,247.50
2023-04-02T07:34:17.762Z,230.62
2023-04-02T07:35:18.585Z,264.38
2023-04-02T07:36:19.498Z,264.38
2023-04-02T07:37:20.306Z,253.12
2023-04-02T07:38:21.152Z,247.50
2023-04-02T07:39:21.960Z,236.25
2023-04-02T07:40:22.798Z,225.00
2023-04-02T07:41:23.633Z,208.12
2023-04-02T07:42:24.463Z,202.50
2023-04-02T07:43:25.412Z,191.25
2023-04-02T07:44:26.169Z,185.62
2023-04-02T07:45:27.146Z,180.00
2023-04-02T07:46:27.926Z,174.38
2023-04-02T07:47:28.764Z,174.38
2023-04-02T07:48:29.589Z,174.38
2023-04-02T07:49:30.393Z,168.75
2023-04-02T07:50:31.225Z,163.12
2023-04-02T07:51:32.073Z,163.12
2023-04-02T07:52:32.880Z,163.12
2023-04-02T07:53:33.733Z,157.50
2023-04-02T07:54:34.534Z,163.12
2023-04-02T07:55:35.625Z,163.12
2023-04-02T07:56:36.056Z,168.75
2023-04-02T07:57:36.873Z,168.75
2023-04-02T07:58:37.711Z,168.75
2023-04-02T07:59:38.528Z,174.38
2023-04-02T08:00:39.368Z,174.38
2023-04-02T08:01:40.220Z,163.12
2023-04-02T08:02:41.040Z,168.75
2023-04-02T08:03:41.903Z,174.38
2023-04-02T08:04:42.729Z,185.62
2023-04-02T08:05:43.569Z,185.62
2023-04-02T08:06:44.418Z,191.25
2023-04-02T08:07:45.224Z,196.88
2023-04-02T08:08:46.049Z,202.50
2023-04-02T08:09:46.873Z,208.12
2023-04-02T08:10:47.711Z,213.75
2023-04-02T08:11:48.550Z,225.00
2023-04-02T08:12:49.368Z,95.62
2023-04-02T08:13:50.206Z,241.88
2023-04-02T08:14:51.028Z,247.50
2023-04-02T08:15:51.876Z,270.00
2023-04-02T08:16:52.875Z,315.00
2023-04-02T08:17:53.287Z,202.50
2023-04-02T08:18:54.078Z,1068.75
2023-04-02T08:19:55.439Z,191.25
2023-04-02T08:20:55.808Z,101.25
2023-04-02T08:21:56.665Z,1428.75
2023-04-02T08:22:57.464Z,1181.25
2023-04-02T08:23:58.293Z,821.25
2023-04-02T08:24:59.118Z,905.62
2023-04-02T08:25:59.975Z,736.88
2023-04-02T08:27:00.793Z,118.12
2023-04-02T08:28:01.619Z,106.88
2023-04-02T08:29:02.446Z,106.88
2023-04-02T08:30:03.260Z,67.50
2023-04-02T08:31:04.132Z,50.62
2023-04-02T08:32:04.926Z,50.62
2023-04-02T08:33:05.803Z,90.00
2023-04-02T08:34:06.579Z,67.50
2023-04-02T08:35:07.432Z,61.88
2023-04-02T08:36:08.296Z,50.62
2023-04-02T08:37:09.114Z,45.00
2023-04-02T08:38:09.917Z,45.00
2023-04-02T08:39:10.745Z,39.38
2023-04-02T08:40:11.572Z,39.38
2023-04-02T08:41:12.411Z,39.38
2023-04-02T08:42:13.313Z,39.38
2023-04-02T08:43:14.114Z,45.00
2023-04-02T08:44:14.937Z,45.00
2023-04-02T08:45:24.992Z,45.00
2023-04-02T08:46:17.538Z,45.00
2023-04-02T08:47:17.401Z,45.00
2023-04-02T08:48:18.221Z,39.38
2023-04-02T08:49:19.047Z,39.38
2023-04-02T08:50:19.882Z,39.38
2023-04-02T08:51:20.718Z,45.00
2023-04-02T08:52:21.556Z,39.38
2023-04-02T08:53:22.373Z,39.38
2023-04-02T08:54:23.196Z,39.38
2023-04-02T08:55:24.020Z,39.38
2023-04-02T08:56:24.853Z,39.38
2023-04-02T08:57:25.699Z,56.25
2023-04-02T08:58:26.510Z,50.62
2023-04-02T08:59:27.328Z,45.00
2023-04-02T09:00:28.156Z,39.38
2023-04-02T09:01:29.077Z,50.62
2023-04-02T09:02:30.027Z,56.25
2023-04-02T09:03:30.815Z,45.00
2023-04-02T09:04:31.680Z,39.38
2023-04-02T09:05:32.540Z,39.38
2023-04-02T09:06:33.312Z,39.38
2023-04-02T09:07:34.192Z,33.75
2023-04-02T09:08:35.005Z,39.38
2023-04-02T09:09:35.819Z,39.38
2023-04-02T09:10:36.644Z,33.75
2023-04-02T09:11:37.480Z,28.12
2023-04-02T09:12:39.609Z,28.12
2023-04-02T09:13:38.842Z,28.12
2023-04-02T09:14:39.683Z,28.12
2023-04-02T09:15:40.512Z,28.12
2023-04-02T09:16:41.347Z,28.12
2023-04-02T09:17:52.941Z,28.12
2023-04-02T09:18:43.936Z,28.12
2023-04-02T09:19:43.728Z,28.12
2023-04-02T09:20:44.569Z,28.12
2023-04-02T09:21:45.398Z,22.50
2023-04-02T09:22:46.245Z,22.50
2023-04-02T09:23:47.052Z,22.50
2023-04-02T09:24:47.880Z,22.50
2023-04-02T09:26:03.020Z,22.50
2023-04-02T09:26:50.435Z,22.50
2023-04-02T09:27:50.317Z,22.50
2023-04-02T09:28:51.128Z,16.88
2023-04-02T09:29:51.969Z,16.88
2023-04-02T09:30:52.799Z,16.88
2023-04-02T09:31:53.847Z,16.88
2023-04-02T09:32:54.152Z,16.88
2023-04-02T09:33:54.976Z,16.88
2023-04-02T09:34:55.802Z,16.88
2023-04-02T09:35:56.674Z,16.88
2023-04-02T09:36:57.501Z,16.88
2023-04-02T09:37:58.338Z,16.88
2023-04-02T09:38:59.181Z,16.88
2023-04-02T09:39:59.973Z,16.88
2023-04-02T09:41:00.804Z,16.88
2023-04-02T09:42:05.804Z,16.88
2023-04-02T09:43:02.346Z,16.88
2023-04-02T09:44:03.183Z,16.88
2023-04-02T09:45:04.064Z,16.88
2023-04-02T09:46:04.893Z,22.50
2023-04-02T09:47:05.802Z,22.50
2023-04-02T09:48:06.654Z,22.50
2023-04-02T09:49:07.451Z,22.50
2023-04-02T09:50:08.281Z,22.50
2023-04-02T09:51:09.106Z,22.50
2023-04-02T09:52:09.945Z,22.50
2023-04-02T09:53:10.800Z,22.50
2023-04-02T09:54:11.602Z,28.12
2023-04-02T09:55:12.429Z,28.12
2023-04-02T09:56:13.274Z,28.12
2023-04-02T09:57:14.144Z,39.38
2023-04-02T09:58:14.937Z,33.75
2023-04-02T09:59:15.773Z,28.12
2023-04-02T10:00:29.808Z,28.12
2023-04-02T10:01:18.356Z,28.12
2023-04-02T10:02:18.166Z,28.12
2023-04-02T10:03:18.999Z,28.12
2023-04-02T10:04:19.834Z,28.12
2023-04-02T10:05:36.871Z,28.12
2023-04-02T10:06:22.367Z,28.12
2023-04-02T10:07:22.201Z,33.75
2023-04-02T10:08:23.058Z,28.12
2023-04-02T10:09:23.857Z,28.12
2023-04-02T10:10:26.308Z,33.75
2023-04-02T10:11:28.917Z,33.75
2023-04-02T10:12:27.384Z,33.75
2023-04-02T10:13:27.228Z,33.75
2023-04-02T10:14:28.036Z,33.75
2023-04-02T10:15:28.869Z,28.12
2023-04-02T10:16:29.780Z,28.12
2023-04-02T10:17:30.633Z,22.50
2023-04-02T10:18:31.413Z,22.50
2023-04-02T10:19:32.251Z,22.50
2023-04-02T10:20:39.065Z,22.50
2023-04-02T10:21:34.805Z,22.50
2023-04-02T10:22:34.634Z,22.50
2023-04-02T10:23:35.475Z,16.88
2023-04-02T10:24:36.280Z,16.88
2023-04-02T10:25:37.309Z,16.88
2023-04-02T10:26:37.733Z,16.88
2023-04-02T10:27:38.554Z,16.88
2023-04-02T10:28:39.385Z,11.25
2023-04-02T10:29:40.218Z,11.25
2023-04-02T10:30:41.076Z,11.25
2023-04-02T10:31:41.901Z,11.25
2023-04-02T10:32:42.797Z,11.25
2023-04-02T10:33:43.608Z,11.25
2023-04-02T10:34:44.449Z,11.25
2023-04-02T10:35:45.304Z,11.25
2023-04-02T10:36:46.114Z,11.25
2023-04-02T10:37:47.017Z,11.25
2023-04-02T10:38:47.903Z,11.25
2023-04-02T10:39:48.704Z,11.25
2023-04-02T10:40:49.537Z,11.25
2023-04-02T10:41:50.370Z,11.25
2023-04-02T10:42:51.203Z,11.25
2023-04-02T10:43:52.030Z,11.25
2023-04-02T10:44:52.868Z,11.25
2023-04-02T10:45:53.690Z,11.25
2023-04-02T10:46:54.506Z,16.88
2023-04-02T10:47:55.414Z,16.88
2023-04-02T10:48:56.200Z,16.88
2023-04-02T10:49:57.035Z,16.88
2023-04-02T10:50:57.859Z,16.88
2023-04-02T10:51:58.681Z,16.88
2023-04-02T10:52:59.520Z,16.88
2023-04-02T10:54:00.367Z,11.25
2023-04-02T10:55:01.168Z,11.25
2023-04-02T10:56:01.984Z,11.25
2023-04-02T10:57:02.865Z,11.25
2023-04-02T10:58:03.660Z,11.25
2023-04-02T10:59:04.482Z,11.25
2023-04-02T11:00:05.313Z,11.25
2023-04-02T11:01:06.134Z,11.25
2023-04-02T11:02:06.966Z,11.25
2023-04-02T11:03:07.874Z,11.25
2023-04-02T11:04:08.698Z,11.25
2023-04-02T11:05:09.513Z,11.25
2023-04-02T11:06:11.955Z,11.25
2023-04-02T11:07:14.772Z,11.25
2023-04-02T11:08:12.231Z,11.25
2023-04-02T11:09:13.089Z,11.25
2023-04-02T11:10:13.886Z,11.25
2023-04-02T11:11:14.714Z,11.25
2023-04-02T11:12:15.536Z,11.25
2023-04-02T11:13:16.385Z,11.25
2023-04-02T11:14:17.218Z,11.25
2023-04-02T11:15:18.079Z,11.25
2023-04-02T11:16:18.913Z,11.25
2023-04-02T11:17:19.811Z,11.25
2023-04-02T11:18:20.658Z,16.88
2023-04-02T11:19:21.493Z,16.88
2023-04-02T11:20:22.317Z,16.88
2023-04-02T11:21:23.154Z,16.88
2023-04-02T11:22:23.983Z,16.88
2023-04-02T11:23:24.824Z,16.88
2023-04-02T11:24:25.673Z,16.88
2023-04-02T11:25:26.480Z,16.88
2023-04-02T11:26:27.304Z,16.88
2023-04-02T11:27:28.144Z,16.88
2023-04-02T11:28:28.991Z,16.88
2023-04-02T11:29:29.815Z,16.88
2023-04-02T11:30:30.634Z,16.88
2023-04-02T11:31:31.532Z,16.88
2023-04-02T11:32:32.386Z,16.88
2023-04-02T11:33:38.303Z,16.88
2023-04-02T11:34:34.925Z,22.50
2023-04-02T11:35:35.066Z,22.50
2023-04-02T11:36:35.502Z,22.50
2023-04-02T11:37:36.336Z,22.50
2023-04-02T11:38:37.180Z,28.12
2023-04-02T11:39:38.036Z,22.50
2023-04-02T11:40:38.837Z,22.50
2023-04-02T11:41:39.663Z,28.12
2023-04-02T11:42:40.521Z,22.50
2023-04-02T11:43:41.340Z,22.50
2023-04-02T11:44:42.276Z,22.50
2023-04-02T11:45:51.937Z,22.50
2023-04-02T11:46:44.843Z,22.50
2023-04-02T11:47:44.689Z,22.50
2023-04-02T11:48:45.512Z,22.50
2023-04-02T11:49:46.451Z,22.50
2023-04-02T11:50:47.297Z,28.12
2023-04-02T11:51:48.739Z,28.12
2023-04-02T11:52:48.923Z,28.12
2023-04-02T11:53:49.778Z,28.12
2023-04-02T11:54:50.618Z,28.12
2023-04-02T11:55:51.422Z,28.12
2023-04-02T11:56:52.310Z,28.12
2023-04-02T11:57:53.115Z,28.12
2023-04-02T11:58:53.948Z,28.12
2023-04-02T11:59:54.766Z,28.12
2023-04-02T12:00:55.595Z,28.12
2023-04-02T12:01:56.446Z,28.12
2023-04-02T12:02:57.261Z,28.12
2023-04-02T12:03:58.100Z,28.12
2023-04-02T12:04:58.979Z,28.12
2023-04-02T12:06:01.231Z,33.75
2023-04-02T12:07:00.602Z,28.12
2023-04-02T12:08:01.430Z,28.12
2023-04-02T12:09:02.286Z,33.75
2023-04-02T12:10:03.129Z,28.12
2023-04-02T12:11:03.941Z,28.12
2023-04-02T12:12:04.769Z,28.12
2023-04-02T12:13:05.610Z,22.50
2023-04-02T12:14:06.437Z,22.50
2023-04-02T12:15:07.268Z,28.12
2023-04-02T12:16:08.085Z,33.75
2023-04-02T12:17:10.003Z,28.12
2023-04-02T12:18:09.906Z,28.12
2023-04-02T12:19:10.760Z,39.38
2023-04-02T12:20:11.597Z,28.12
2023-04-02T12:21:12.414Z,28.12
2023-04-02T12:22:13.244Z,28.12
2023-04-02T12:23:14.072Z,28.12
2023-04-02T12:24:14.928Z,28.12
2023-04-02T12:25:15.763Z,28.12
2023-04-02T12:26:16.571Z,28.12
2023-04-02T12:27:17.419Z,28.12
2023-04-02T12:28:18.229Z,28.12
2023-04-02T12:29:19.067Z,28.12
2023-04-02T12:30:19.912Z,28.12
2023-04-02T12:31:20.789Z,28.12
2023-04-02T12:32:21.572Z,28.12
2023-04-02T12:33:22.399Z,28.12
2023-04-02T12:34:23.247Z,28.12
2023-04-02T12:35:24.071Z,28.12
2023-04-02T12:36:24.897Z,28.12
2023-04-02T12:37:25.721Z,22.50
2023-04-02T12:38:26.667Z,22.50
2023-04-02T12:39:28.536Z,22.50
2023-04-02T12:40:28.030Z,22.50
2023-04-02T12:41:28.848Z,16.88
2023-04-02T12:42:29.658Z,16.88
2023-04-02T12:43:30.490Z,16.88
2023-04-02T12:44:31.333Z,11.25
2023-04-02T12:45:32.158Z,11.25
2023-04-02T12:46:33.073Z,11.25
2023-04-02T12:47:33.930Z,11.25
2023-04-02T12:48:34.737Z,5.62
2023-04-02T12:49:35.556Z,5.62
2023-04-02T12:50:36.509Z,5.62
2023-04-02T12:51:36.943Z,5.62
2023-04-02T12:52:37.767Z,5.62
2023-04-02T12:53:38.599Z,5.62
2023-04-02T12:54:39.433Z,5.62
2023-04-02T12:55:40.283Z,5.62
2023-04-02T12:56:41.099Z,5.62
2023-04-02T12:57:42.004Z,5.62
2023-04-02T12:58:42.884Z,5.62
2023-04-02T12:59:43.684Z,5.62
2023-04-02T13:00:44.530Z,5.62
2023-04-02T13:01:45.346Z,5.62
2023-04-02T13:02:46.187Z,5.62
2023-04-02T13:03:47.028Z,5.62
2023-04-02T13:04:47.845Z,5.62
2023-04-02T13:05:48.674Z,5.62
2023-04-02T13:06:49.502Z,5.62
2023-04-02T13:07:50.337Z,5.62
2023-04-02T13:08:51.166Z,5.62
2023-04-02T13:09:52.020Z,5.62
2023-04-02T13:10:52.873Z,5.62
2023-04-02T13:11:53.677Z,5.62